Anchorage, AK

4:13 PM AKDT on September 20, 2014 (GMT -0800)
Merrill | Change Station
CLOSE
Current Station
Airport
Location: Anchorage Merrill,
Elevation: 135 ft
Nearby Weather Stations

Elev 135 ft 61.22 °N, 149.85 °W | Updated 20 minutes ago

Scattered Clouds
Scattered Clouds
59 °F
Feels Like 59 °F
N
7
Wind Variable Wind from NNW

Today
High -- | Low -- °F
--% Chance of Precip.
Yesterday
High -- | Low -- °F
Precip. -- in
7:39 AM 8:05 PM
Waning Crescent, 10% visible
Pressure 29.59 in
Visibility 10.0 miles
Clouds Scattered Clouds 5500 ft
Dew Point 43 °F
Humidity 55%
Rainfall 0.02 in
Snow Depth 3 in , 14 in , 0 in
UV 2 out of 12
Pollen Not available.
Air Quality Not available.
Flu Activity Not available.
METAR PAMR 202353Z COR 33006KT 10SM SCT055 15/06 A2959 RMK AO2 SLP020 T01500061 10156 20100 50001

More Conditions Fewer Conditions

Pressure 29.59 in
Visibility 10.0 miles
Clouds Scattered Clouds 5500 ft
Dew Point 43 °F
Humidity 55%
Rainfall 0.02 in
Snow Depth 3 in , 14 in , 0 in
UV 2 out of 12
Pollen Not available.
Air Quality Not available.
Flu Activity Not available.
METAR PAMR 202353Z COR 33006KT 10SM SCT055 15/06 A2959 RMK AO2 SLP020 T01500061 10156 20100 50001

More Conditions Fewer Conditions

10-Day Weather Forecast

Almanac

Astronomy

Sep. 20, 2014 Rise Set
Actual Time 7:39 AM AKDT 8:05 PM AKDT
Civil Twilight 6:55 AM AKDT 8:48 PM AKDT
Nautical Twilight 6:02 AM AKDT 9:40 PM AKDT
Astronomical Twilight 5:03 AM AKDT 10:39 PM AKDT
Moon 3:44 AM AKDT (9/20) 6:48 PM AKDT (9/20)
Length of Visible Light 13h 52m
Length of Day
12h 26m
Tomorrow will be 5m 40s shorter.
Waning Crescent, 10% of the Moon is Illuminated
Today
Waning Crescent
Sep 24
New
Oct 1
First Quarter
Oct 8
Full
Oct 15
Last Quarter

Today's Extremes

State Highs State Lows

Community

WunderPhotos

Upload Photos

1,754,997 photos uploaded!

WunderBlogs® & News

Nearby

Snow Depth

Station Depth Elevation
Atigun Pass 3 in 4800 ft
Moraine 14 in 2100 ft
Eagle Summit 0 in 3650 ft
Mcneil Canyon 1 in 1320 ft
Susitna Valley High 1 in 375 ft

Earthquake Activity

City Distance Mag. Time & Date
No recent earthquake activity has been reported nearby.
Minimum magnitude displayed is 2.5.

Coastal Water Temperatures

Place Temperature
No Stations Reporting

Nearby Weather Stations